FIN22P LPFR-EFHK
Flight info
| Callsign | FIN22P |
|---|---|
| Flight time | N/A |
| Altitude | 36000 |
| Route | ELVAR DCT BARDI DCT ZMR DCT NUBLO DCT RONSI DCT DELOG DCT PEXOD DCT DIDIG DCT USODA DCT ERCUT DCT DITAL UN873 BAZOS DCT BELDI DCT VEKIN DCT ADUTO N873 VICOT/N0445F370 DCT JUIST DCT LUTIR DCT RIKUM DCT RIRIP Y364 LAKUT |
| Aircraft | A320/M-SDE3FGHIRWY/LB1 |
Departure
| Time | N/A |
|---|---|
| Airport | Faro - Gago Coutinho International Airport (LPFR) |
Arrival
| Time | 2026-05-07 17:30 |
|---|---|
| Airport | Helsinki Vantaa Airport (EFHK) |
| Time | Latitude | Longitude | Altitude | Speed | Heading |
|---|---|---|---|---|---|
| 2026-05-07 15:53 | 54.28782 | 7.62633 | 37132 ft | 449 kts | 30° |
| 2026-05-07 15:54 | 54.34192 | 7.68023 | 37141 ft | 449 kts | 30° |
| 2026-05-07 15:54 | 54.39585 | 7.73423 | 37137 ft | 448 kts | 30° |
| 2026-05-07 15:55 | 54.44972 | 7.78824 | 37140 ft | 448 kts | 30° |
| 2026-05-07 15:55 | 54.50362 | 7.84244 | 37138 ft | 448 kts | 30° |
| 2026-05-07 15:56 | 54.55715 | 7.89644 | 37139 ft | 448 kts | 30° |
| 2026-05-07 15:56 | 54.61100 | 7.95083 | 37141 ft | 448 kts | 30° |
| 2026-05-07 15:57 | 54.66471 | 8.00521 | 37136 ft | 447 kts | 30° |
| 2026-05-07 15:57 | 54.71842 | 8.05990 | 37132 ft | 447 kts | 31° |
| 2026-05-07 15:58 | 54.77211 | 8.11474 | 37131 ft | 448 kts | 30° |
| 2026-05-07 15:58 | 54.82565 | 8.16965 | 37124 ft | 448 kts | 30° |
| 2026-05-07 15:59 | 54.87933 | 8.22476 | 37117 ft | 448 kts | 30° |
| 2026-05-07 15:59 | 54.93258 | 8.27956 | 37120 ft | 448 kts | 30° |
| 2026-05-07 16:00 | 54.98611 | 8.33498 | 37119 ft | 447 kts | 30° |
| 2026-05-07 16:00 | 55.03956 | 8.39049 | 37115 ft | 448 kts | 30° |
| 2026-05-07 16:01 | 55.08805 | 8.45850 | 37125 ft | 448 kts | 45° |
| 2026-05-07 16:01 | 55.13153 | 8.53677 | 37122 ft | 449 kts | 45° |
| 2026-05-07 16:02 | 55.17509 | 8.61537 | 37120 ft | 450 kts | 45° |
| 2026-05-07 16:02 | 55.21857 | 8.69407 | 37125 ft | 450 kts | 45° |
| 2026-05-07 16:03 | 55.26185 | 8.77253 | 37119 ft | 450 kts | 45° |
| 2026-05-07 16:03 | 55.30529 | 8.85157 | 37119 ft | 451 kts | 45° |
| 2026-05-07 16:04 | 55.34875 | 8.93111 | 37114 ft | 451 kts | 45° |
| 2026-05-07 16:04 | 55.39228 | 9.01085 | 37116 ft | 451 kts | 45° |
| 2026-05-07 16:05 | 55.43543 | 9.09022 | 37120 ft | 451 kts | 46° |
| 2026-05-07 16:05 | 55.47875 | 9.17031 | 37123 ft | 451 kts | 45° |
| 2026-05-07 16:06 | 55.52214 | 9.25067 | 37123 ft | 451 kts | 45° |
| 2026-05-07 16:06 | 55.56547 | 9.33108 | 37124 ft | 451 kts | 46° |
| 2026-05-07 16:07 | 55.60855 | 9.41130 | 37124 ft | 451 kts | 46° |
| 2026-05-07 16:07 | 55.65174 | 9.49220 | 37120 ft | 451 kts | 46° |
| 2026-05-07 16:08 | 55.69465 | 9.57285 | 37117 ft | 451 kts | 46° |
| 2026-05-07 16:08 | 55.73779 | 9.65411 | 37117 ft | 451 kts | 46° |
| 2026-05-07 16:09 | 55.78052 | 9.73484 | 37115 ft | 451 kts | 46° |
| 2026-05-07 16:09 | 55.82335 | 9.81608 | 37117 ft | 451 kts | 46° |
| 2026-05-07 16:10 | 55.86639 | 9.89793 | 37120 ft | 451 kts | 46° |
| 2026-05-07 16:10 | 55.90910 | 9.97943 | 37131 ft | 451 kts | 46° |
| 2026-05-07 16:11 | 55.95197 | 10.06175 | 37129 ft | 451 kts | 46° |
| 2026-05-07 16:11 | 55.99449 | 10.14352 | 37126 ft | 451 kts | 46° |
| 2026-05-07 16:12 | 56.03725 | 10.22607 | 37123 ft | 451 kts | 46° |
| 2026-05-07 16:12 | 56.07958 | 10.30808 | 37121 ft | 451 kts | 47° |
| 2026-05-07 16:13 | 56.12225 | 10.39106 | 37118 ft | 451 kts | 47° |
| 2026-05-07 16:13 | 56.16465 | 10.47379 | 37128 ft | 451 kts | 46° |
| 2026-05-07 16:14 | 56.20715 | 10.55702 | 37131 ft | 452 kts | 46° |
| 2026-05-07 16:14 | 56.24965 | 10.64055 | 37134 ft | 452 kts | 46° |
| 2026-05-07 16:15 | 56.29183 | 10.72356 | 37144 ft | 452 kts | 46° |
| 2026-05-07 16:15 | 56.33434 | 10.80765 | 37146 ft | 452 kts | 47° |
| 2026-05-07 16:16 | 56.37660 | 10.89163 | 37156 ft | 452 kts | 46° |
| 2026-05-07 16:16 | 56.41887 | 10.97577 | 37147 ft | 452 kts | 46° |
| 2026-05-07 16:17 | 56.46085 | 11.05974 | 37144 ft | 453 kts | 46° |
| 2026-05-07 16:17 | 56.50308 | 11.14449 | 37141 ft | 453 kts | 46° |
| 2026-05-07 16:18 | 56.54532 | 11.22940 | 37139 ft | 453 kts | 47° |
| 2026-05-07 16:18 | 56.58745 | 11.31465 | 37140 ft | 453 kts | 47° |
| 2026-05-07 16:19 | 56.62925 | 11.39973 | 37144 ft | 454 kts | 47° |
| 2026-05-07 16:19 | 56.67132 | 11.48536 | 37142 ft | 454 kts | 47° |
| 2026-05-07 16:20 | 56.71347 | 11.57129 | 37140 ft | 455 kts | 47° |
| 2026-05-07 16:20 | 56.75555 | 11.65748 | 37140 ft | 455 kts | 47° |
| 2026-05-07 16:21 | 56.79732 | 11.74351 | 37141 ft | 455 kts | 47° |
| 2026-05-07 16:21 | 56.83919 | 11.83019 | 37146 ft | 455 kts | 47° |
| 2026-05-07 16:22 | 56.88117 | 11.91743 | 37134 ft | 456 kts | 47° |
| 2026-05-07 16:22 | 56.92285 | 12.00426 | 37136 ft | 457 kts | 47° |
| 2026-05-07 16:23 | 56.96486 | 12.09183 | 37133 ft | 457 kts | 47° |
| 2026-05-07 16:23 | 57.00686 | 12.17981 | 37139 ft | 457 kts | 47° |
| 2026-05-07 16:24 | 57.04865 | 12.26785 | 37136 ft | 458 kts | 47° |
| 2026-05-07 16:24 | 57.09031 | 12.35579 | 37137 ft | 458 kts | 47° |
| 2026-05-07 16:25 | 57.13216 | 12.44448 | 37130 ft | 459 kts | 47° |
| 2026-05-07 16:25 | 57.17396 | 12.53356 | 37130 ft | 460 kts | 47° |
| 2026-05-07 16:26 | 57.21583 | 12.62304 | 37123 ft | 460 kts | 47° |
| 2026-05-07 16:26 | 57.25732 | 12.71204 | 37117 ft | 460 kts | 47° |
| 2026-05-07 16:27 | 57.29909 | 12.80193 | 37126 ft | 460 kts | 47° |
| 2026-05-07 16:27 | 57.34087 | 12.89220 | 37114 ft | 461 kts | 47° |
| 2026-05-07 16:28 | 57.38232 | 12.98208 | 37108 ft | 462 kts | 47° |
| 2026-05-07 16:28 | 57.42403 | 13.07272 | 37103 ft | 462 kts | 47° |
| 2026-05-07 16:29 | 57.45867 | 13.14844 | 37104 ft | 462 kts | 47° |
| 2026-05-07 16:29 | 57.50031 | 13.23967 | 37106 ft | 462 kts | 47° |
| 2026-05-07 16:30 | 57.54194 | 13.33143 | 37108 ft | 463 kts | 47° |
| 2026-05-07 16:30 | 57.58348 | 13.42337 | 37088 ft | 464 kts | 47° |
| 2026-05-07 16:31 | 57.62487 | 13.51517 | 37093 ft | 465 kts | 47° |
| 2026-05-07 16:31 | 57.66644 | 13.60760 | 37097 ft | 465 kts | 47° |
| 2026-05-07 16:32 | 57.70798 | 13.70045 | 37100 ft | 465 kts | 48° |
| 2026-05-07 16:32 | 57.74918 | 13.79294 | 37119 ft | 466 kts | 47° |
| 2026-05-07 16:33 | 57.79064 | 13.88636 | 37101 ft | 467 kts | 47° |
| 2026-05-07 16:33 | 57.83202 | 13.98024 | 37099 ft | 467 kts | 47° |
| 2026-05-07 16:34 | 57.87351 | 14.07443 | 37087 ft | 468 kts | 47° |
| 2026-05-07 16:34 | 57.91495 | 14.16875 | 37081 ft | 468 kts | 48° |
| 2026-05-07 16:35 | 57.95601 | 14.26289 | 37097 ft | 468 kts | 48° |
| 2026-05-07 16:35 | 57.99720 | 14.35782 | 37105 ft | 468 kts | 48° |
| 2026-05-07 16:36 | 58.03842 | 14.45289 | 37115 ft | 468 kts | 48° |
| 2026-05-07 16:36 | 58.07969 | 14.54831 | 37117 ft | 468 kts | 48° |
| 2026-05-07 16:37 | 58.12055 | 14.64337 | 37114 ft | 468 kts | 49° |
| 2026-05-07 16:37 | 58.16150 | 14.73918 | 37111 ft | 467 kts | 49° |
| 2026-05-07 16:38 | 58.20224 | 14.83479 | 37125 ft | 468 kts | 48° |
| 2026-05-07 16:38 | 58.24316 | 14.93105 | 37117 ft | 468 kts | 48° |
| 2026-05-07 16:39 | 58.28402 | 15.02749 | 37098 ft | 468 kts | 48° |
| 2026-05-07 16:39 | 58.32478 | 15.12413 | 37104 ft | 468 kts | 48° |
| 2026-05-07 16:40 | 58.36515 | 15.22037 | 37094 ft | 468 kts | 49° |
| 2026-05-07 16:40 | 58.40570 | 15.31767 | 37115 ft | 468 kts | 49° |
| 2026-05-07 16:41 | 58.44627 | 15.41518 | 37085 ft | 468 kts | 48° |
| 2026-05-07 16:41 | 58.48655 | 15.51223 | 37074 ft | 469 kts | 49° |
| 2026-05-07 16:42 | 58.52702 | 15.61027 | 37073 ft | 470 kts | 49° |
| 2026-05-07 16:42 | 58.56749 | 15.70908 | 37075 ft | 470 kts | 49° |
| 2026-05-07 16:43 | 58.60752 | 15.80710 | 37079 ft | 470 kts | 49° |
| 2026-05-07 16:43 | 58.64791 | 15.90621 | 37077 ft | 472 kts | 49° |
| 2026-05-07 16:44 | 58.68830 | 16.00578 | 37093 ft | 473 kts | 49° |
| 2026-05-07 16:44 | 58.72873 | 16.10576 | 37101 ft | 474 kts | 49° |
| 2026-05-07 16:45 | 58.76919 | 16.20607 | 37095 ft | 474 kts | 49° |
| 2026-05-07 16:45 | 58.80926 | 16.30620 | 37106 ft | 475 kts | 49° |
| 2026-05-07 16:46 | 58.84953 | 16.40729 | 37142 ft | 475 kts | 49° |
| 2026-05-07 16:46 | 58.88980 | 16.50879 | 37110 ft | 476 kts | 49° |
| 2026-05-07 16:47 | 58.93013 | 16.61086 | 37103 ft | 477 kts | 49° |
| 2026-05-07 16:47 | 58.97048 | 16.71326 | 37109 ft | 478 kts | 49° |
| 2026-05-07 16:48 | 59.01076 | 16.81586 | 37099 ft | 478 kts | 49° |
| 2026-05-07 16:48 | 59.05078 | 16.91823 | 37115 ft | 478 kts | 50° |
| 2026-05-07 16:49 | 59.09092 | 17.02168 | 37121 ft | 479 kts | 50° |
| 2026-05-07 16:49 | 59.13092 | 17.12508 | 37120 ft | 480 kts | 50° |
| 2026-05-07 16:50 | 59.17110 | 17.22928 | 37111 ft | 480 kts | 50° |
| 2026-05-07 16:50 | 59.21119 | 17.33385 | 37116 ft | 481 kts | 50° |
| 2026-05-07 16:51 | 59.25125 | 17.43867 | 37110 ft | 481 kts | 50° |
| 2026-05-07 16:51 | 59.29100 | 17.54309 | 37147 ft | 482 kts | 50° |
| 2026-05-07 16:52 | 59.33096 | 17.64889 | 37120 ft | 482 kts | 50° |
| 2026-05-07 16:52 | 59.37064 | 17.75434 | 37104 ft | 483 kts | 50° |
| 2026-05-07 16:53 | 59.41044 | 17.86044 | 37114 ft | 483 kts | 50° |
| 2026-05-07 16:53 | 59.45031 | 17.96717 | 37121 ft | 484 kts | 50° |
| 2026-05-07 16:54 | 59.48825 | 18.07690 | 37114 ft | 488 kts | 63° |
| 2026-05-07 16:54 | 59.51287 | 18.20107 | 37110 ft | 491 kts | 67° |
| 2026-05-07 16:55 | 59.53681 | 18.32750 | 37113 ft | 492 kts | 68° |
| 2026-05-07 16:55 | 59.56053 | 18.45416 | 37114 ft | 493 kts | 68° |
| 2026-05-07 16:56 | 59.58402 | 18.58068 | 37132 ft | 494 kts | 68° |
| 2026-05-07 16:56 | 59.61938 | 18.77195 | 37144 ft | 494 kts | 68° |
| 2026-05-07 16:57 | 59.64292 | 18.89997 | 37156 ft | 495 kts | 68° |
| 2026-05-07 16:57 | 59.66625 | 19.02830 | 37191 ft | 495 kts | 69° |
| 2026-05-07 16:58 | 59.68929 | 19.15588 | 37175 ft | 495 kts | 69° |
| 2026-05-07 16:58 | 59.71248 | 19.28484 | 37159 ft | 495 kts | 69° |
| 2026-05-07 16:59 | 59.73546 | 19.41296 | 37165 ft | 496 kts | 69° |
| 2026-05-07 16:59 | 59.75835 | 19.54218 | 37161 ft | 496 kts | 69° |
| 2026-05-07 17:00 | 59.78102 | 19.67088 | 37159 ft | 496 kts | 69° |
| 2026-05-07 17:00 | 59.80366 | 19.80016 | 37164 ft | 496 kts | 69° |
| 2026-05-07 17:01 | 59.82606 | 19.92980 | 37209 ft | 496 kts | 69° |
| 2026-05-07 17:01 | 59.84841 | 20.05965 | 37152 ft | 495 kts | 69° |
| 2026-05-07 17:02 | 59.87072 | 20.18949 | 37137 ft | 496 kts | 70° |
| 2026-05-07 17:02 | 59.89291 | 20.31973 | 37143 ft | 496 kts | 70° |
| 2026-05-07 17:03 | 59.91477 | 20.44928 | 37144 ft | 496 kts | 70° |
| 2026-05-07 17:03 | 59.93666 | 20.57998 | 37144 ft | 496 kts | 70° |
| 2026-05-07 17:04 | 59.95850 | 20.71076 | 37151 ft | 496 kts | 70° |
| 2026-05-07 17:04 | 59.98008 | 20.84159 | 37149 ft | 496 kts | 70° |
| 2026-05-07 17:05 | 60.00153 | 20.97295 | 37147 ft | 496 kts | 70° |
| 2026-05-07 17:05 | 60.02275 | 21.10336 | 37129 ft | 496 kts | 71° |
| 2026-05-07 17:06 | 60.04408 | 21.23489 | 37137 ft | 497 kts | 71° |
| 2026-05-07 17:06 | 60.05465 | 21.30074 | 36947 ft | 497 kts | 71° |
| 2026-05-07 17:06 | 60.06518 | 21.36667 | 36303 ft | 498 kts | 71° |
| 2026-05-07 17:07 | 60.07579 | 21.43314 | 35383 ft | 502 kts | 70° |
| 2026-05-07 17:07 | 60.08635 | 21.49959 | 34406 ft | 508 kts | 70° |
| 2026-05-07 17:07 | 60.09708 | 21.56735 | 33383 ft | 511 kts | 70° |
| 2026-05-07 17:07 | 60.10771 | 21.63487 | 32804 ft | 504 kts | 70° |
| 2026-05-07 17:08 | 60.11818 | 21.70165 | 32106 ft | 501 kts | 70° |
| 2026-05-07 17:08 | 60.12861 | 21.76833 | 31487 ft | 497 kts | 70° |
| 2026-05-07 17:08 | 60.13896 | 21.83453 | 30746 ft | 496 kts | 70° |
| 2026-05-07 17:08 | 60.14910 | 21.89967 | 30136 ft | 493 kts | 70° |
| 2026-05-07 17:09 | 60.15925 | 21.96525 | 29428 ft | 489 kts | 70° |
| 2026-05-07 17:09 | 60.16925 | 22.03020 | 28808 ft | 485 kts | 71° |
| 2026-05-07 17:09 | 60.17912 | 22.09463 | 28172 ft | 481 kts | 71° |
| 2026-05-07 17:09 | 60.18889 | 22.15882 | 27550 ft | 477 kts | 71° |
| 2026-05-07 17:10 | 60.19854 | 22.22238 | 26951 ft | 473 kts | 71° |
| 2026-05-07 17:10 | 60.20812 | 22.28545 | 26359 ft | 470 kts | 71° |
| 2026-05-07 17:10 | 60.21754 | 22.34750 | 25804 ft | 466 kts | 71° |
| 2026-05-07 17:10 | 60.22696 | 22.40985 | 25245 ft | 463 kts | 71° |
| 2026-05-07 17:11 | 60.23631 | 22.47191 | 24698 ft | 460 kts | 71° |
| 2026-05-07 17:11 | 60.24551 | 22.53349 | 24143 ft | 457 kts | 71° |
| 2026-05-07 17:11 | 60.25463 | 22.59484 | 23560 ft | 455 kts | 71° |
| 2026-05-07 17:11 | 60.26359 | 22.65526 | 22942 ft | 453 kts | 71° |
| 2026-05-07 17:12 | 60.27255 | 22.71588 | 22409 ft | 449 kts | 72° |
| 2026-05-07 17:12 | 60.28143 | 22.77617 | 21830 ft | 448 kts | 72° |
| 2026-05-07 17:12 | 60.29017 | 22.83568 | 21265 ft | 446 kts | 72° |
| 2026-05-07 17:12 | 60.29891 | 22.89534 | 20806 ft | 440 kts | 72° |
| 2026-05-07 17:13 | 60.30757 | 22.95455 | 20305 ft | 437 kts | 72° |
| 2026-05-07 17:13 | 60.31613 | 23.01334 | 19851 ft | 432 kts | 72° |
| 2026-05-07 17:13 | 60.32457 | 23.07145 | 19376 ft | 429 kts | 72° |
| 2026-05-07 17:13 | 60.33275 | 23.12821 | 18930 ft | 425 kts | 72° |
| 2026-05-07 17:14 | 60.34098 | 23.18547 | 18462 ft | 421 kts | 72° |
| 2026-05-07 17:14 | 60.34913 | 23.24238 | 17968 ft | 417 kts | 72° |
| 2026-05-07 17:14 | 60.35703 | 23.29776 | 17483 ft | 413 kts | 72° |
| 2026-05-07 17:14 | 60.36488 | 23.35302 | 16742 ft | 404 kts | 72° |
| 2026-05-07 17:15 | 60.37259 | 23.40743 | 15875 ft | 398 kts | 72° |
| 2026-05-07 17:15 | 60.38011 | 23.46081 | 15133 ft | 390 kts | 72° |
| 2026-05-07 17:15 | 60.38737 | 23.51256 | 14689 ft | 374 kts | 72° |
| 2026-05-07 17:15 | 60.39425 | 23.56166 | 14236 ft | 360 kts | 72° |
| 2026-05-07 17:16 | 60.40098 | 23.60966 | 13757 ft | 349 kts | 72° |
| 2026-05-07 17:16 | 60.40746 | 23.65616 | 13278 ft | 337 kts | 72° |
| 2026-05-07 17:16 | 60.41367 | 23.70100 | 12863 ft | 326 kts | 72° |
| 2026-05-07 17:16 | 60.41973 | 23.74488 | 12414 ft | 321 kts | 73° |
| 2026-05-07 17:17 | 60.42574 | 23.78830 | 11983 ft | 317 kts | 73° |
| 2026-05-07 17:17 | 60.43159 | 23.83051 | 11563 ft | 312 kts | 73° |
| 2026-05-07 17:17 | 60.43732 | 23.87312 | 11144 ft | 312 kts | 77° |
| 2026-05-07 17:17 | 60.44042 | 23.91681 | 10726 ft | 312 kts | 83° |
| 2026-05-07 17:18 | 60.44288 | 23.95967 | 10426 ft | 307 kts | 83° |
| 2026-05-07 17:18 | 60.44533 | 24.00216 | 10182 ft | 300 kts | 82° |
| 2026-05-07 17:18 | 60.44772 | 24.04381 | 10069 ft | 296 kts | 83° |
| 2026-05-07 17:18 | 60.45008 | 24.08516 | 10081 ft | 295 kts | 83° |
| 2026-05-07 17:19 | 60.45142 | 24.12643 | 9791 ft | 294 kts | 95° |
| 2026-05-07 17:19 | 60.44546 | 24.16565 | 9413 ft | 291 kts | 117° |
| 2026-05-07 17:19 | 60.43585 | 24.20161 | 8992 ft | 289 kts | 120° |
| 2026-05-07 17:19 | 60.42589 | 24.23687 | 8617 ft | 287 kts | 120° |
| 2026-05-07 17:20 | 60.41930 | 24.26001 | 8328 ft | 286 kts | 120° |
| 2026-05-07 17:20 | 60.40929 | 24.29482 | 7911 ft | 285 kts | 120° |
| 2026-05-07 17:20 | 60.39910 | 24.32928 | 7486 ft | 285 kts | 120° |
| 2026-05-07 17:20 | 60.38896 | 24.36303 | 7297 ft | 273 kts | 120° |
| 2026-05-07 17:21 | 60.37923 | 24.39521 | 7062 ft | 263 kts | 120° |
| 2026-05-07 17:21 | 60.36981 | 24.42607 | 6671 ft | 260 kts | 120° |
| 2026-05-07 17:21 | 60.36029 | 24.45697 | 6240 ft | 258 kts | 120° |
| 2026-05-07 17:21 | 60.35371 | 24.48997 | 5812 ft | 252 kts | 94° |
| 2026-05-07 17:22 | 60.35529 | 24.52459 | 5414 ft | 247 kts | 73° |
| 2026-05-07 17:22 | 60.35982 | 24.55802 | 5045 ft | 245 kts | 71° |
| 2026-05-07 17:22 | 60.36465 | 24.59103 | 5008 ft | 246 kts | 70° |
| 2026-05-07 17:22 | 60.36956 | 24.62446 | 5008 ft | 247 kts | 71° |
| 2026-05-07 17:23 | 60.37585 | 24.65614 | 5000 ft | 243 kts | 51° |
| 2026-05-07 17:23 | 60.38841 | 24.67770 | 5003 ft | 236 kts | 20° |
| 2026-05-07 17:23 | 60.40432 | 24.68232 | 5009 ft | 232 kts | 349° |
| 2026-05-07 17:23 | 60.41994 | 24.67436 | 5007 ft | 232 kts | 341° |
| 2026-05-07 17:24 | 60.43534 | 24.66425 | 5008 ft | 233 kts | 341° |
| 2026-05-07 17:24 | 60.45063 | 24.65394 | 4776 ft | 230 kts | 341° |
| 2026-05-07 17:24 | 60.46606 | 24.64502 | 4348 ft | 232 kts | 353° |
| 2026-05-07 17:24 | 60.48185 | 24.65059 | 3923 ft | 235 kts | 25° |
| 2026-05-07 17:25 | 60.49381 | 24.67249 | 3522 ft | 241 kts | 57° |
| 2026-05-07 17:25 | 60.50054 | 24.70390 | 3092 ft | 244 kts | 70° |
| 2026-05-07 17:25 | 60.50255 | 24.73794 | 2705 ft | 244 kts | 96° |
| 2026-05-07 17:25 | 60.49792 | 24.77046 | 2484 ft | 236 kts | 118° |
| 2026-05-07 17:26 | 60.48851 | 24.79653 | 2252 ft | 227 kts | 140° |
| 2026-05-07 17:26 | 60.47593 | 24.81419 | 2142 ft | 213 kts | 157° |
| 2026-05-07 17:26 | 60.46296 | 24.82756 | 2049 ft | 204 kts | 156° |
| 2026-05-07 17:26 | 60.45072 | 24.84028 | 1999 ft | 194 kts | 156° |
| 2026-05-07 17:27 | 60.43896 | 24.85246 | 2040 ft | 187 kts | 157° |
| 2026-05-07 17:27 | 60.42751 | 24.86429 | 2008 ft | 184 kts | 157° |
| 2026-05-07 17:27 | 60.41610 | 24.87607 | 1991 ft | 184 kts | 156° |
| 2026-05-07 17:27 | 60.40486 | 24.88769 | 1831 ft | 174 kts | 156° |
| 2026-05-07 17:28 | 60.39439 | 24.89850 | 1629 ft | 165 kts | 156° |
| 2026-05-07 17:28 | 60.38459 | 24.90863 | 1433 ft | 150 kts | 156° |
| 2026-05-07 17:28 | 60.37577 | 24.91772 | 1231 ft | 139 kts | 158° |
| 2026-05-07 17:28 | 60.36731 | 24.92642 | 1033 ft | 134 kts | 157° |
| 2026-05-07 17:29 | 60.35910 | 24.93486 | 848 ft | 131 kts | 157° |
| 2026-05-07 17:29 | 60.35108 | 24.94319 | 660 ft | 129 kts | 156° |
| 2026-05-07 17:29 | 60.34306 | 24.95137 | 473 ft | 128 kts | 156° |
| 2026-05-07 17:29 | 60.33524 | 24.95947 | 293 ft | 127 kts | 156° |
| 2026-05-07 17:30 | 60.32742 | 24.96748 | 166 ft | 121 kts | 156° |
| 2026-05-07 17:30 | 60.32126 | 24.97373 | 170 ft | 75 kts | 153° |
| 2026-05-07 17:30 | 60.31804 | 24.97706 | 175 ft | 35 kts | 151° |
| 2026-05-07 17:30 | 60.31705 | 24.97709 | 177 ft | 12 kts | 216° |
| 2026-05-07 17:31 | 60.31669 | 24.97610 | 178 ft | 0 kts | 244° |